sensor_id;sensor_type;location;lat;lon;timestamp;P1;durP1;ratioP1;P2;durP2;ratioP2
70975;SDS011;58635;51.198;6.010;2024-01-16T00:00:51;15.90;;;9.45;;
70975;SDS011;58635;51.198;6.010;2024-01-16T00:03:16;12.52;;;8.40;;
70975;SDS011;58635;51.198;6.010;2024-01-16T00:05:42;12.43;;;7.63;;
70975;SDS011;58635;51.198;6.010;2024-01-16T00:08:07;15.13;;;8.07;;
70975;SDS011;58635;51.198;6.010;2024-01-16T00:10:32;12.93;;;7.70;;
70975;SDS011;58635;51.198;6.010;2024-01-16T00:12:58;14.30;;;7.57;;
70975;SDS011;58635;51.198;6.010;2024-01-16T00:15:23;15.70;;;6.93;;
70975;SDS011;58635;51.198;6.010;2024-01-16T00:17:48;11.50;;;6.28;;
70975;SDS011;58635;51.198;6.010;2024-01-16T00:20:14;11.10;;;5.95;;
70975;SDS011;58635;51.198;6.010;2024-01-16T00:22:39;8.40;;;5.70;;
70975;SDS011;58635;51.198;6.010;2024-01-16T00:25:05;8.00;;;5.60;;
70975;SDS011;58635;51.198;6.010;2024-01-16T00:27:31;7.03;;;4.90;;
70975;SDS011;58635;51.198;6.010;2024-01-16T00:29:56;9.43;;;5.20;;
70975;SDS011;58635;51.198;6.010;2024-01-16T00:32:21;10.68;;;5.80;;
70975;SDS011;58635;51.198;6.010;2024-01-16T00:34:47;8.73;;;5.20;;
70975;SDS011;58635;51.198;6.010;2024-01-16T00:37:12;11.25;;;6.53;;
70975;SDS011;58635;51.198;6.010;2024-01-16T00:39:38;11.82;;;7.25;;
70975;SDS011;58635;51.198;6.010;2024-01-16T00:42:03;11.13;;;7.00;;
70975;SDS011;58635;51.198;6.010;2024-01-16T00:44:29;11.18;;;7.20;;
70975;SDS011;58635;51.198;6.010;2024-01-16T00:46:54;10.98;;;7.25;;
70975;SDS011;58635;51.198;6.010;2024-01-16T00:49:19;13.55;;;7.70;;
70975;SDS011;58635;51.198;6.010;2024-01-16T00:51:45;12.02;;;7.68;;
70975;SDS011;58635;51.198;6.010;2024-01-16T00:54:10;11.63;;;6.97;;
70975;SDS011;58635;51.198;6.010;2024-01-16T00:56:36;12.75;;;7.78;;
70975;SDS011;58635;51.198;6.010;2024-01-16T00:59:01;12.60;;;7.35;;
70975;SDS011;58635;51.198;6.010;2024-01-16T01:01:27;12.45;;;7.88;;
70975;SDS011;58635;51.198;6.010;2024-01-16T01:03:52;12.38;;;8.55;;
70975;SDS011;58635;51.198;6.010;2024-01-16T01:06:18;13.15;;;7.68;;
70975;SDS011;58635;51.198;6.010;2024-01-16T01:08:43;10.88;;;7.53;;
70975;SDS011;58635;51.198;6.010;2024-01-16T01:11:09;12.40;;;7.57;;
70975;SDS011;58635;51.198;6.010;2024-01-16T01:13:34;15.00;;;7.85;;
70975;SDS011;58635;51.198;6.010;2024-01-16T01:15:59;12.82;;;7.40;;
70975;SDS011;58635;51.198;6.010;2024-01-16T01:18:25;14.07;;;7.70;;
70975;SDS011;58635;51.198;6.010;2024-01-16T01:20:51;11.23;;;7.20;;
70975;SDS011;58635;51.198;6.010;2024-01-16T01:23:16;15.18;;;6.93;;
70975;SDS011;58635;51.198;6.010;2024-01-16T01:25:42;13.73;;;6.95;;
70975;SDS011;58635;51.198;6.010;2024-01-16T01:28:07;13.70;;;7.30;;
70975;SDS011;58635;51.198;6.010;2024-01-16T01:30:33;12.88;;;7.35;;
70975;SDS011;58635;51.198;6.010;2024-01-16T01:32:58;13.10;;;7.75;;
70975;SDS011;58635;51.198;6.010;2024-01-16T01:35:24;13.48;;;7.18;;
70975;SDS011;58635;51.198;6.010;2024-01-16T01:37:49;12.13;;;7.47;;
70975;SDS011;58635;51.198;6.010;2024-01-16T01:40:15;14.27;;;7.93;;
70975;SDS011;58635;51.198;6.010;2024-01-16T01:42:43;13.43;;;7.60;;
70975;SDS011;58635;51.198;6.010;2024-01-16T01:45:09;11.35;;;7.07;;
70975;SDS011;58635;51.198;6.010;2024-01-16T01:47:36;16.08;;;7.97;;
70975;SDS011;58635;51.198;6.010;2024-01-16T01:50:02;14.15;;;7.47;;
70975;SDS011;58635;51.198;6.010;2024-01-16T01:52:30;11.00;;;6.55;;
70975;SDS011;58635;51.198;6.010;2024-01-16T01:54:58;13.00;;;6.78;;
70975;SDS011;58635;51.198;6.010;2024-01-16T01:57:24;13.63;;;6.80;;
70975;SDS011;58635;51.198;6.010;2024-01-16T01:59:50;13.63;;;6.50;;
70975;SDS011;58635;51.198;6.010;2024-01-16T02:02:15;10.88;;;6.13;;
70975;SDS011;58635;51.198;6.010;2024-01-16T02:04:42;11.02;;;5.93;;
70975;SDS011;58635;51.198;6.010;2024-01-16T02:07:09;9.85;;;5.43;;
70975;SDS011;58635;51.198;6.010;2024-01-16T02:09:34;11.63;;;5.95;;
70975;SDS011;58635;51.198;6.010;2024-01-16T02:12:00;9.95;;;4.95;;
70975;SDS011;58635;51.198;6.010;2024-01-16T02:14:26;9.30;;;5.30;;
70975;SDS011;58635;51.198;6.010;2024-01-16T02:16:52;9.07;;;5.32;;
70975;SDS011;58635;51.198;6.010;2024-01-16T02:19:17;9.25;;;5.18;;
70975;SDS011;58635;51.198;6.010;2024-01-16T02:21:44;8.18;;;4.78;;
70975;SDS011;58635;51.198;6.010;2024-01-16T02:24:13;8.82;;;6.32;;
70975;SDS011;58635;51.198;6.010;2024-01-16T02:26:40;9.23;;;4.47;;
70975;SDS011;58635;51.198;6.010;2024-01-16T02:29:05;9.40;;;4.88;;
70975;SDS011;58635;51.198;6.010;2024-01-16T02:31:31;9.38;;;4.95;;
70975;SDS011;58635;51.198;6.010;2024-01-16T02:33:57;8.88;;;4.05;;
70975;SDS011;58635;51.198;6.010;2024-01-16T02:36:23;7.97;;;4.47;;
70975;SDS011;58635;51.198;6.010;2024-01-16T02:38:49;8.90;;;4.60;;
70975;SDS011;58635;51.198;6.010;2024-01-16T02:41:15;9.25;;;4.68;;
70975;SDS011;58635;51.198;6.010;2024-01-16T02:43:41;11.25;;;4.47;;
70975;SDS011;58635;51.198;6.010;2024-01-16T02:46:07;7.70;;;4.70;;
70975;SDS011;58635;51.198;6.010;2024-01-16T02:48:33;6.68;;;4.13;;
70975;SDS011;58635;51.198;6.010;2024-01-16T02:50:59;7.47;;;4.68;;
70975;SDS011;58635;51.198;6.010;2024-01-16T02:53:24;6.90;;;3.95;;
70975;SDS011;58635;51.198;6.010;2024-01-16T02:55:50;5.55;;;2.95;;
70975;SDS011;58635;51.198;6.010;2024-01-16T02:58:17;4.57;;;3.00;;
70975;SDS011;58635;51.198;6.010;2024-01-16T03:00:42;5.72;;;3.05;;
70975;SDS011;58635;51.198;6.010;2024-01-16T03:03:07;8.25;;;3.40;;
70975;SDS011;58635;51.198;6.010;2024-01-16T03:05:33;4.65;;;3.30;;
70975;SDS011;58635;51.198;6.010;2024-01-16T03:07:59;5.70;;;3.60;;
70975;SDS011;58635;51.198;6.010;2024-01-16T03:10:25;7.85;;;3.97;;
70975;SDS011;58635;51.198;6.010;2024-01-16T03:12:51;7.28;;;3.95;;
70975;SDS011;58635;51.198;6.010;2024-01-16T03:15:16;6.47;;;3.75;;
70975;SDS011;58635;51.198;6.010;2024-01-16T03:17:42;6.05;;;4.15;;
70975;SDS011;58635;51.198;6.010;2024-01-16T03:20:07;8.38;;;5.05;;
70975;SDS011;58635;51.198;6.010;2024-01-16T03:22:33;7.55;;;5.50;;
70975;SDS011;58635;51.198;6.010;2024-01-16T03:24:59;9.63;;;6.20;;
70975;SDS011;58635;51.198;6.010;2024-01-16T03:27:25;10.65;;;6.80;;
70975;SDS011;58635;51.198;6.010;2024-01-16T03:29:50;11.07;;;7.70;;
70975;SDS011;58635;51.198;6.010;2024-01-16T03:32:16;12.10;;;7.72;;
70975;SDS011;58635;51.198;6.010;2024-01-16T03:34:42;11.70;;;6.90;;
70975;SDS011;58635;51.198;6.010;2024-01-16T03:37:07;13.52;;;7.78;;
70975;SDS011;58635;51.198;6.010;2024-01-16T03:39:32;12.70;;;8.10;;
70975;SDS011;58635;51.198;6.010;2024-01-16T03:41:58;9.57;;;6.32;;
70975;SDS011;58635;51.198;6.010;2024-01-16T03:44:23;15.65;;;6.65;;
70975;SDS011;58635;51.198;6.010;2024-01-16T03:46:48;13.73;;;7.20;;
70975;SDS011;58635;51.198;6.010;2024-01-16T03:49:14;13.35;;;6.60;;
70975;SDS011;58635;51.198;6.010;2024-01-16T03:51:39;10.55;;;5.82;;
70975;SDS011;58635;51.198;6.010;2024-01-16T03:54:07;10.80;;;5.75;;
70975;SDS011;58635;51.198;6.010;2024-01-16T03:56:33;10.15;;;5.55;;
70975;SDS011;58635;51.198;6.010;2024-01-16T03:58:58;13.23;;;5.38;;
70975;SDS011;58635;51.198;6.010;2024-01-16T04:01:30;8.32;;;4.57;;
70975;SDS011;58635;51.198;6.010;2024-01-16T04:03:59;11.32;;;5.13;;
70975;SDS011;58635;51.198;6.010;2024-01-16T04:06:24;11.40;;;5.20;;
70975;SDS011;58635;51.198;6.010;2024-01-16T04:08:51;9.13;;;4.68;;
70975;SDS011;58635;51.198;6.010;2024-01-16T04:11:16;8.02;;;4.22;;
70975;SDS011;58635;51.198;6.010;2024-01-16T04:13:42;8.88;;;4.30;;
70975;SDS011;58635;51.198;6.010;2024-01-16T04:16:07;12.00;;;4.60;;
70975;SDS011;58635;51.198;6.010;2024-01-16T04:18:36;10.63;;;4.70;;
70975;SDS011;58635;51.198;6.010;2024-01-16T04:21:04;9.13;;;4.45;;
70975;SDS011;58635;51.198;6.010;2024-01-16T04:23:29;10.55;;;4.03;;
70975;SDS011;58635;51.198;6.010;2024-01-16T04:25:55;9.77;;;4.00;;
70975;SDS011;58635;51.198;6.010;2024-01-16T04:28:20;9.93;;;3.88;;
70975;SDS011;58635;51.198;6.010;2024-01-16T04:30:45;9.18;;;3.92;;
70975;SDS011;58635;51.198;6.010;2024-01-16T04:33:11;10.27;;;4.03;;
70975;SDS011;58635;51.198;6.010;2024-01-16T04:35:36;11.48;;;3.60;;
70975;SDS011;58635;51.198;6.010;2024-01-16T04:38:02;10.00;;;4.10;;
70975;SDS011;58635;51.198;6.010;2024-01-16T04:40:28;11.10;;;3.58;;
70975;SDS011;58635;51.198;6.010;2024-01-16T04:42:53;9.63;;;3.67;;
70975;SDS011;58635;51.198;6.010;2024-01-16T04:45:18;12.82;;;3.70;;
70975;SDS011;58635;51.198;6.010;2024-01-16T04:47:44;10.38;;;3.45;;
70975;SDS011;58635;51.198;6.010;2024-01-16T04:50:09;10.38;;;4.13;;
70975;SDS011;58635;51.198;6.010;2024-01-16T04:52:35;9.05;;;3.42;;
70975;SDS011;58635;51.198;6.010;2024-01-16T04:55:00;11.43;;;4.10;;
70975;SDS011;58635;51.198;6.010;2024-01-16T04:57:25;10.27;;;3.75;;
70975;SDS011;58635;51.198;6.010;2024-01-16T04:59:51;9.52;;;4.15;;
70975;SDS011;58635;51.198;6.010;2024-01-16T05:02:16;8.93;;;3.53;;
70975;SDS011;58635;51.198;6.010;2024-01-16T05:04:42;13.48;;;4.32;;
70975;SDS011;58635;51.198;6.010;2024-01-16T05:07:07;8.52;;;3.47;;
70975;SDS011;58635;51.198;6.010;2024-01-16T05:09:33;8.80;;;3.25;;
70975;SDS011;58635;51.198;6.010;2024-01-16T05:12:00;8.18;;;3.50;;
70975;SDS011;58635;51.198;6.010;2024-01-16T05:14:25;8.93;;;3.50;;
70975;SDS011;58635;51.198;6.010;2024-01-16T05:16:51;7.55;;;3.67;;
70975;SDS011;58635;51.198;6.010;2024-01-16T05:19:17;8.57;;;3.38;;
70975;SDS011;58635;51.198;6.010;2024-01-16T05:21:43;9.18;;;3.10;;
70975;SDS011;58635;51.198;6.010;2024-01-16T05:24:08;8.95;;;3.53;;
70975;SDS011;58635;51.198;6.010;2024-01-16T05:26:33;9.65;;;3.50;;
70975;SDS011;58635;51.198;6.010;2024-01-16T05:28:59;9.93;;;3.60;;
70975;SDS011;58635;51.198;6.010;2024-01-16T05:31:24;10.65;;;3.80;;
70975;SDS011;58635;51.198;6.010;2024-01-16T05:33:50;9.20;;;3.28;;
70975;SDS011;58635;51.198;6.010;2024-01-16T05:36:15;8.43;;;3.50;;
70975;SDS011;58635;51.198;6.010;2024-01-16T05:38:40;10.20;;;3.85;;
70975;SDS011;58635;51.198;6.010;2024-01-16T05:41:06;10.27;;;3.17;;
70975;SDS011;58635;51.198;6.010;2024-01-16T05:43:31;9.02;;;3.17;;
70975;SDS011;58635;51.198;6.010;2024-01-16T05:45:56;10.43;;;3.17;;
70975;SDS011;58635;51.198;6.010;2024-01-16T05:48:22;9.82;;;3.60;;
70975;SDS011;58635;51.198;6.010;2024-01-16T05:50:47;9.52;;;3.83;;
70975;SDS011;58635;51.198;6.010;2024-01-16T05:53:13;7.63;;;2.95;;
70975;SDS011;58635;51.198;6.010;2024-01-16T05:55:38;7.80;;;3.30;;
70975;SDS011;58635;51.198;6.010;2024-01-16T05:58:03;8.88;;;3.00;;
70975;SDS011;58635;51.198;6.010;2024-01-16T06:00:31;7.53;;;2.97;;
70975;SDS011;58635;51.198;6.010;2024-01-16T06:02:58;7.53;;;3.00;;
70975;SDS011;58635;51.198;6.010;2024-01-16T06:05:24;8.90;;;3.40;;
70975;SDS011;58635;51.198;6.010;2024-01-16T06:07:49;7.13;;;3.17;;
70975;SDS011;58635;51.198;6.010;2024-01-16T06:10:16;11.30;;;2.83;;
70975;SDS011;58635;51.198;6.010;2024-01-16T06:12:41;7.55;;;2.90;;
70975;SDS011;58635;51.198;6.010;2024-01-16T06:15:07;8.68;;;3.63;;
70975;SDS011;58635;51.198;6.010;2024-01-16T06:17:33;9.30;;;2.92;;
70975;SDS011;58635;51.198;6.010;2024-01-16T06:19:58;11.65;;;3.38;;
70975;SDS011;58635;51.198;6.010;2024-01-16T06:22:24;8.63;;;3.33;;
70975;SDS011;58635;51.198;6.010;2024-01-16T06:24:50;9.07;;;3.33;;
70975;SDS011;58635;51.198;6.010;2024-01-16T06:27:16;8.82;;;3.30;;
70975;SDS011;58635;51.198;6.010;2024-01-16T06:29:45;7.22;;;3.05;;
70975;SDS011;58635;51.198;6.010;2024-01-16T06:32:12;10.85;;;3.45;;
70975;SDS011;58635;51.198;6.010;2024-01-16T06:34:38;11.13;;;3.65;;
70975;SDS011;58635;51.198;6.010;2024-01-16T06:37:04;13.43;;;3.40;;
70975;SDS011;58635;51.198;6.010;2024-01-16T06:39:29;12.15;;;3.90;;
70975;SDS011;58635;51.198;6.010;2024-01-16T06:41:56;11.75;;;3.50;;
70975;SDS011;58635;51.198;6.010;2024-01-16T06:44:21;13.88;;;3.58;;
70975;SDS011;58635;51.198;6.010;2024-01-16T06:46:46;8.90;;;3.25;;
70975;SDS011;58635;51.198;6.010;2024-01-16T06:49:12;7.68;;;2.95;;
70975;SDS011;58635;51.198;6.010;2024-01-16T06:51:38;9.10;;;3.22;;
70975;SDS011;58635;51.198;6.010;2024-01-16T06:54:04;8.35;;;3.42;;
70975;SDS011;58635;51.198;6.010;2024-01-16T06:56:29;9.93;;;3.13;;
70975;SDS011;58635;51.198;6.010;2024-01-16T06:58:56;7.47;;;3.10;;
70975;SDS011;58635;51.198;6.010;2024-01-16T07:01:21;10.80;;;3.40;;
70975;SDS011;58635;51.198;6.010;2024-01-16T07:03:48;8.30;;;3.15;;
70975;SDS011;58635;51.198;6.010;2024-01-16T07:06:14;9.35;;;3.03;;
70975;SDS011;58635;51.198;6.010;2024-01-16T07:08:39;9.57;;;3.47;;
70975;SDS011;58635;51.198;6.010;2024-01-16T07:11:06;8.32;;;3.13;;
70975;SDS011;58635;51.198;6.010;2024-01-16T07:13:33;8.80;;;3.25;;
70975;SDS011;58635;51.198;6.010;2024-01-16T07:16:01;11.68;;;3.30;;
70975;SDS011;58635;51.198;6.010;2024-01-16T07:18:27;9.32;;;3.20;;
70975;SDS011;58635;51.198;6.010;2024-01-16T07:20:53;10.45;;;3.38;;
70975;SDS011;58635;51.198;6.010;2024-01-16T07:23:18;8.18;;;3.50;;
70975;SDS011;58635;51.198;6.010;2024-01-16T07:25:44;8.73;;;3.10;;
70975;SDS011;58635;51.198;6.010;2024-01-16T07:28:09;9.75;;;3.60;;
70975;SDS011;58635;51.198;6.010;2024-01-16T07:30:34;10.40;;;3.13;;
70975;SDS011;58635;51.198;6.010;2024-01-16T07:33:00;10.90;;;3.50;;
70975;SDS011;58635;51.198;6.010;2024-01-16T07:35:25;10.65;;;3.38;;
70975;SDS011;58635;51.198;6.010;2024-01-16T07:37:51;12.60;;;3.83;;
70975;SDS011;58635;51.198;6.010;2024-01-16T07:40:16;13.07;;;4.38;;
70975;SDS011;58635;51.198;6.010;2024-01-16T07:42:42;8.73;;;3.25;;
70975;SDS011;58635;51.198;6.010;2024-01-16T07:45:07;9.90;;;3.60;;
70975;SDS011;58635;51.198;6.010;2024-01-16T07:47:33;9.63;;;3.45;;
70975;SDS011;58635;51.198;6.010;2024-01-16T07:49:59;9.07;;;3.28;;
70975;SDS011;58635;51.198;6.010;2024-01-16T07:52:25;10.00;;;3.65;;
70975;SDS011;58635;51.198;6.010;2024-01-16T07:54:52;9.82;;;3.42;;
70975;SDS011;58635;51.198;6.010;2024-01-16T07:57:17;10.40;;;3.67;;
70975;SDS011;58635;51.198;6.010;2024-01-16T07:59:42;7.82;;;3.60;;
70975;SDS011;58635;51.198;6.010;2024-01-16T08:02:07;10.88;;;4.05;;
70975;SDS011;58635;51.198;6.010;2024-01-16T08:04:34;11.80;;;4.30;;
70975;SDS011;58635;51.198;6.010;2024-01-16T08:06:59;9.25;;;3.70;;
70975;SDS011;58635;51.198;6.010;2024-01-16T08:09:25;9.27;;;3.80;;
70975;SDS011;58635;51.198;6.010;2024-01-16T08:11:50;9.02;;;3.80;;
70975;SDS011;58635;51.198;6.010;2024-01-16T08:14:16;10.88;;;3.55;;
70975;SDS011;58635;51.198;6.010;2024-01-16T08:16:41;10.63;;;4.20;;
70975;SDS011;58635;51.198;6.010;2024-01-16T08:19:06;12.60;;;4.45;;
70975;SDS011;58635;51.198;6.010;2024-01-16T08:21:32;10.90;;;4.45;;
70975;SDS011;58635;51.198;6.010;2024-01-16T08:23:58;10.48;;;4.82;;
70975;SDS011;58635;51.198;6.010;2024-01-16T08:26:23;11.45;;;4.10;;
70975;SDS011;58635;51.198;6.010;2024-01-16T08:28:49;9.70;;;4.07;;
70975;SDS011;58635;51.198;6.010;2024-01-16T08:31:19;9.45;;;4.53;;
70975;SDS011;58635;51.198;6.010;2024-01-16T08:33:44;10.60;;;3.78;;
70975;SDS011;58635;51.198;6.010;2024-01-16T08:36:10;9.73;;;4.10;;
70975;SDS011;58635;51.198;6.010;2024-01-16T08:38:35;12.10;;;4.30;;
70975;SDS011;58635;51.198;6.010;2024-01-16T08:41:01;7.95;;;3.60;;
70975;SDS011;58635;51.198;6.010;2024-01-16T08:43:28;11.52;;;4.38;;
70975;SDS011;58635;51.198;6.010;2024-01-16T08:45:53;11.07;;;4.05;;
70975;SDS011;58635;51.198;6.010;2024-01-16T08:48:18;13.25;;;4.63;;
70975;SDS011;58635;51.198;6.010;2024-01-16T08:50:44;13.60;;;4.18;;
70975;SDS011;58635;51.198;6.010;2024-01-16T08:53:09;11.48;;;4.60;;
70975;SDS011;58635;51.198;6.010;2024-01-16T08:55:35;12.73;;;4.30;;
70975;SDS011;58635;51.198;6.010;2024-01-16T08:58:00;13.50;;;4.65;;
70975;SDS011;58635;51.198;6.010;2024-01-16T09:00:26;9.40;;;4.15;;
70975;SDS011;58635;51.198;6.010;2024-01-16T09:02:52;14.00;;;4.47;;
70975;SDS011;58635;51.198;6.010;2024-01-16T09:05:17;11.18;;;4.53;;
70975;SDS011;58635;51.198;6.010;2024-01-16T09:07:43;13.65;;;4.18;;
70975;SDS011;58635;51.198;6.010;2024-01-16T09:10:08;13.35;;;4.65;;
70975;SDS011;58635;51.198;6.010;2024-01-16T09:12:34;9.85;;;4.55;;
70975;SDS011;58635;51.198;6.010;2024-01-16T09:14:59;13.15;;;5.20;;
70975;SDS011;58635;51.198;6.010;2024-01-16T09:17:24;12.73;;;5.47;;
70975;SDS011;58635;51.198;6.010;2024-01-16T09:19:51;11.98;;;4.75;;
70975;SDS011;58635;51.198;6.010;2024-01-16T09:22:16;10.65;;;4.38;;
70975;SDS011;58635;51.198;6.010;2024-01-16T09:24:43;7.50;;;3.63;;
70975;SDS011;58635;51.198;6.010;2024-01-16T09:27:08;14.55;;;4.28;;
70975;SDS011;58635;51.198;6.010;2024-01-16T09:29:35;13.43;;;4.05;;
70975;SDS011;58635;51.198;6.010;2024-01-16T09:32:00;9.48;;;3.88;;
70975;SDS011;58635;51.198;6.010;2024-01-16T09:34:26;10.55;;;4.03;;
70975;SDS011;58635;51.198;6.010;2024-01-16T09:36:51;31.45;;;14.88;;
70975;SDS011;58635;51.198;6.010;2024-01-16T09:39:16;14.45;;;7.03;;
70975;SDS011;58635;51.198;6.010;2024-01-16T09:41:42;12.38;;;4.28;;
70975;SDS011;58635;51.198;6.010;2024-01-16T09:44:07;12.32;;;5.38;;
70975;SDS011;58635;51.198;6.010;2024-01-16T09:46:34;10.70;;;4.47;;
70975;SDS011;58635;51.198;6.010;2024-01-16T09:49:01;12.55;;;4.38;;
70975;SDS011;58635;51.198;6.010;2024-01-16T09:51:29;11.05;;;4.05;;
70975;SDS011;58635;51.198;6.010;2024-01-16T09:53:55;11.95;;;4.45;;
70975;SDS011;58635;51.198;6.010;2024-01-16T09:56:23;16.00;;;4.85;;
70975;SDS011;58635;51.198;6.010;2024-01-16T09:58:49;14.18;;;4.70;;
70975;SDS011;58635;51.198;6.010;2024-01-16T10:01:19;10.43;;;3.95;;
70975;SDS011;58635;51.198;6.010;2024-01-16T10:03:45;11.38;;;4.50;;
70975;SDS011;58635;51.198;6.010;2024-01-16T10:06:10;10.68;;;4.30;;
70975;SDS011;58635;51.198;6.010;2024-01-16T10:08:37;11.00;;;4.28;;
70975;SDS011;58635;51.198;6.010;2024-01-16T10:11:03;10.73;;;4.28;;
70975;SDS011;58635;51.198;6.010;2024-01-16T10:13:29;13.50;;;4.20;;
70975;SDS011;58635;51.198;6.010;2024-01-16T10:15:56;10.43;;;4.28;;
70975;SDS011;58635;51.198;6.010;2024-01-16T10:18:25;11.13;;;4.63;;
70975;SDS011;58635;51.198;6.010;2024-01-16T10:20:51;15.32;;;4.60;;
70975;SDS011;58635;51.198;6.010;2024-01-16T10:23:22;12.57;;;5.03;;
70975;SDS011;58635;51.198;6.010;2024-01-16T10:26:04;12.05;;;4.57;;
70975;SDS011;58635;51.198;6.010;2024-01-16T10:28:38;11.88;;;4.75;;
70975;SDS011;58635;51.198;6.010;2024-01-16T10:31:05;14.25;;;4.47;;
70975;SDS011;58635;51.198;6.010;2024-01-16T10:33:34;12.75;;;5.03;;
70975;SDS011;58635;51.198;6.010;2024-01-16T10:36:08;12.02;;;4.55;;
70975;SDS011;58635;51.198;6.010;2024-01-16T10:38:38;11.63;;;4.13;;
70975;SDS011;58635;51.198;6.010;2024-01-16T10:41:14;12.18;;;4.38;;
70975;SDS011;58635;51.198;6.010;2024-01-16T10:43:42;35.17;;;19.50;;
70975;SDS011;58635;51.198;6.010;2024-01-16T10:48:45;11.98;;;4.57;;
70975;SDS011;58635;51.198;6.010;2024-01-16T10:51:27;9.80;;;3.97;;
70975;SDS011;58635;51.198;6.010;2024-01-16T10:54:02;10.57;;;4.60;;
70975;SDS011;58635;51.198;6.010;2024-01-16T10:56:31;12.55;;;4.32;;
70975;SDS011;58635;51.198;6.010;2024-01-16T10:59:06;11.57;;;4.57;;
70975;SDS011;58635;51.198;6.010;2024-01-16T11:01:48;14.95;;;4.75;;
70975;SDS011;58635;51.198;6.010;2024-01-16T11:04:16;9.02;;;3.92;;
70975;SDS011;58635;51.198;6.010;2024-01-16T11:06:44;12.23;;;4.53;;
70975;SDS011;58635;51.198;6.010;2024-01-16T11:09:10;9.45;;;4.05;;
70975;SDS011;58635;51.198;6.010;2024-01-16T11:11:40;12.57;;;5.03;;
70975;SDS011;58635;51.198;6.010;2024-01-16T11:14:08;13.82;;;4.88;;
70975;SDS011;58635;51.198;6.010;2024-01-16T11:16:37;11.27;;;4.80;;
70975;SDS011;58635;51.198;6.010;2024-01-16T11:19:04;11.75;;;4.07;;
70975;SDS011;58635;51.198;6.010;2024-01-16T11:21:32;9.05;;;4.50;;
70975;SDS011;58635;51.198;6.010;2024-01-16T11:23:59;9.80;;;4.55;;
70975;SDS011;58635;51.198;6.010;2024-01-16T11:26:28;11.68;;;4.68;;
70975;SDS011;58635;51.198;6.010;2024-01-16T11:28:57;9.90;;;4.43;;
70975;SDS011;58635;51.198;6.010;2024-01-16T11:31:31;10.65;;;4.32;;
70975;SDS011;58635;51.198;6.010;2024-01-16T11:33:57;12.73;;;4.83;;
70975;SDS011;58635;51.198;6.010;2024-01-16T11:39:20;10.93;;;4.28;;
70975;SDS011;58635;51.198;6.010;2024-01-16T11:41:47;11.27;;;4.32;;
70975;SDS011;58635;51.198;6.010;2024-01-16T11:47:19;8.73;;;4.35;;
70975;SDS011;58635;51.198;6.010;2024-01-16T11:52:40;16.85;;;4.53;;
70975;SDS011;58635;51.198;6.010;2024-01-16T11:55:26;11.20;;;4.57;;
70975;SDS011;58635;51.198;6.010;2024-01-16T11:58:08;11.82;;;4.22;;
70975;SDS011;58635;51.198;6.010;2024-01-16T12:00:36;10.93;;;4.25;;
70975;SDS011;58635;51.198;6.010;2024-01-16T12:03:07;10.43;;;4.30;;
70975;SDS011;58635;51.198;6.010;2024-01-16T12:05:34;8.60;;;3.83;;
70975;SDS011;58635;51.198;6.010;2024-01-16T12:07:59;10.70;;;4.00;;
70975;SDS011;58635;51.198;6.010;2024-01-16T12:10:26;8.23;;;4.10;;
70975;SDS011;58635;51.198;6.010;2024-01-16T12:12:58;26.48;;;13.40;;
70975;SDS011;58635;51.198;6.010;2024-01-16T12:15:24;24.02;;;13.07;;
70975;SDS011;58635;51.198;6.010;2024-01-16T12:17:57;13.50;;;5.30;;
70975;SDS011;58635;51.198;6.010;2024-01-16T12:20:23;11.05;;;3.80;;
70975;SDS011;58635;51.198;6.010;2024-01-16T12:22:56;8.15;;;3.92;;
70975;SDS011;58635;51.198;6.010;2024-01-16T12:25:24;11.60;;;4.25;;
70975;SDS011;58635;51.198;6.010;2024-01-16T12:27:59;8.73;;;3.88;;
70975;SDS011;58635;51.198;6.010;2024-01-16T12:30:27;6.85;;;3.88;;
70975;SDS011;58635;51.198;6.010;2024-01-16T12:33:10;8.68;;;4.35;;
70975;SDS011;58635;51.198;6.010;2024-01-16T12:35:41;10.73;;;4.23;;
70975;SDS011;58635;51.198;6.010;2024-01-16T12:38:10;9.40;;;3.90;;
70975;SDS011;58635;51.198;6.010;2024-01-16T12:40:41;7.82;;;3.83;;
70975;SDS011;58635;51.198;6.010;2024-01-16T12:43:18;8.00;;;3.97;;
70975;SDS011;58635;51.198;6.010;2024-01-16T12:45:44;11.93;;;4.30;;
70975;SDS011;58635;51.198;6.010;2024-01-16T12:48:10;7.45;;;3.90;;
70975;SDS011;58635;51.198;6.010;2024-01-16T12:50:36;9.23;;;4.43;;
70975;SDS011;58635;51.198;6.010;2024-01-16T12:53:05;7.10;;;3.70;;
70975;SDS011;58635;51.198;6.010;2024-01-16T12:55:33;12.65;;;4.00;;
70975;SDS011;58635;51.198;6.010;2024-01-16T13:00:52;14.82;;;4.00;;
70975;SDS011;58635;51.198;6.010;2024-01-16T13:03:18;8.65;;;3.65;;
70975;SDS011;58635;51.198;6.010;2024-01-16T13:05:45;10.93;;;4.85;;
70975;SDS011;58635;51.198;6.010;2024-01-16T13:08:19;9.45;;;4.20;;
70975;SDS011;58635;51.198;6.010;2024-01-16T13:11:02;9.10;;;3.90;;
70975;SDS011;58635;51.198;6.010;2024-01-16T13:13:28;10.98;;;4.28;;
70975;SDS011;58635;51.198;6.010;2024-01-16T13:15:54;8.20;;;3.65;;
70975;SDS011;58635;51.198;6.010;2024-01-16T13:18:23;8.07;;;3.55;;
70975;SDS011;58635;51.198;6.010;2024-01-16T13:20:50;8.25;;;3.88;;
70975;SDS011;58635;51.198;6.010;2024-01-16T13:23:17;7.07;;;3.63;;
70975;SDS011;58635;51.198;6.010;2024-01-16T13:25:44;7.55;;;3.63;;
70975;SDS011;58635;51.198;6.010;2024-01-16T13:28:11;9.93;;;3.65;;
70975;SDS011;58635;51.198;6.010;2024-01-16T13:30:37;11.10;;;3.67;;
70975;SDS011;58635;51.198;6.010;2024-01-16T13:33:03;11.80;;;3.88;;
70975;SDS011;58635;51.198;6.010;2024-01-16T13:35:29;8.45;;;3.67;;
70975;SDS011;58635;51.198;6.010;2024-01-16T13:37:55;10.82;;;3.40;;
70975;SDS011;58635;51.198;6.010;2024-01-16T13:40:20;8.23;;;4.80;;
70975;SDS011;58635;51.198;6.010;2024-01-16T13:42:47;11.52;;;4.00;;
70975;SDS011;58635;51.198;6.010;2024-01-16T13:45:13;10.57;;;4.05;;
70975;SDS011;58635;51.198;6.010;2024-01-16T13:47:39;8.82;;;3.45;;
70975;SDS011;58635;51.198;6.010;2024-01-16T13:50:08;11.27;;;3.78;;
70975;SDS011;58635;51.198;6.010;2024-01-16T13:52:34;9.50;;;4.00;;
70975;SDS011;58635;51.198;6.010;2024-01-16T13:55:00;10.82;;;3.80;;
70975;SDS011;58635;51.198;6.010;2024-01-16T13:57:28;16.45;;;3.97;;
70975;SDS011;58635;51.198;6.010;2024-01-16T13:59:54;7.18;;;3.40;;
70975;SDS011;58635;51.198;6.010;2024-01-16T14:02:19;8.13;;;3.47;;
70975;SDS011;58635;51.198;6.010;2024-01-16T14:04:45;7.70;;;3.70;;
70975;SDS011;58635;51.198;6.010;2024-01-16T14:07:10;9.50;;;3.88;;
70975;SDS011;58635;51.198;6.010;2024-01-16T14:09:35;9.07;;;3.80;;
70975;SDS011;58635;51.198;6.010;2024-01-16T14:12:01;6.32;;;2.83;;
70975;SDS011;58635;51.198;6.010;2024-01-16T14:14:26;9.45;;;4.18;;
70975;SDS011;58635;51.198;6.010;2024-01-16T14:16:53;7.15;;;3.10;;
70975;SDS011;58635;51.198;6.010;2024-01-16T14:19:19;12.68;;;4.82;;
70975;SDS011;58635;51.198;6.010;2024-01-16T14:21:45;6.50;;;2.97;;
70975;SDS011;58635;51.198;6.010;2024-01-16T14:24:12;8.27;;;3.67;;
70975;SDS011;58635;51.198;6.010;2024-01-16T14:26:38;8.55;;;3.60;;
70975;SDS011;58635;51.198;6.010;2024-01-16T14:29:06;6.18;;;3.17;;
70975;SDS011;58635;51.198;6.010;2024-01-16T14:31:32;6.78;;;2.75;;
70975;SDS011;58635;51.198;6.010;2024-01-16T14:33:57;8.50;;;3.13;;
70975;SDS011;58635;51.198;6.010;2024-01-16T14:36:23;7.03;;;3.30;;
70975;SDS011;58635;51.198;6.010;2024-01-16T14:38:49;7.22;;;3.28;;
70975;SDS011;58635;51.198;6.010;2024-01-16T14:41:16;8.00;;;3.63;;
70975;SDS011;58635;51.198;6.010;2024-01-16T14:43:41;8.23;;;3.35;;
70975;SDS011;58635;51.198;6.010;2024-01-16T14:46:07;7.40;;;2.95;;
70975;SDS011;58635;51.198;6.010;2024-01-16T14:48:35;9.88;;;3.00;;
70975;SDS011;58635;51.198;6.010;2024-01-16T14:51:02;9.85;;;3.47;;